sensor_id;sensor_type;location;lat;lon;timestamp;temperature;humidity
25640;DHT22;13497;48.322;16.204;2023-02-26T00:00:55;3.30;99.90
25640;DHT22;13497;48.322;16.204;2023-02-26T00:03:21;3.30;99.90
25640;DHT22;13497;48.322;16.204;2023-02-26T00:05:46;3.30;99.90
25640;DHT22;13497;48.322;16.204;2023-02-26T00:08:12;3.20;99.90
25640;DHT22;13497;48.322;16.204;2023-02-26T00:10:37;3.30;99.90
25640;DHT22;13497;48.322;16.204;2023-02-26T00:13:03;3.30;99.90
25640;DHT22;13497;48.322;16.204;2023-02-26T00:15:29;3.40;99.90
25640;DHT22;13497;48.322;16.204;2023-02-26T00:17:57;3.40;99.90
25640;DHT22;13497;48.322;16.204;2023-02-26T00:20:24;3.50;99.90
25640;DHT22;13497;48.322;16.204;2023-02-26T00:22:50;3.40;99.90
25640;DHT22;13497;48.322;16.204;2023-02-26T00:25:16;3.40;99.90
25640;DHT22;13497;48.322;16.204;2023-02-26T00:27:41;3.40;99.90
25640;DHT22;13497;48.322;16.204;2023-02-26T00:30:08;3.30;99.90
25640;DHT22;13497;48.322;16.204;2023-02-26T00:32:34;3.30;99.90
25640;DHT22;13497;48.322;16.204;2023-02-26T00:35:01;3.30;99.90
25640;DHT22;13497;48.322;16.204;2023-02-26T00:40:11;3.40;99.90
25640;DHT22;13497;48.322;16.204;2023-02-26T00:42:39;3.40;99.90
25640;DHT22;13497;48.322;16.204;2023-02-26T00:45:04;3.40;99.90
25640;DHT22;13497;48.322;16.204;2023-02-26T00:50:21;3.40;99.90
25640;DHT22;13497;48.322;16.204;2023-02-26T00:55:28;3.40;99.90
25640;DHT22;13497;48.322;16.204;2023-02-26T00:57:53;3.30;99.90
25640;DHT22;13497;48.322;16.204;2023-02-26T01:00:20;3.20;99.90
25640;DHT22;13497;48.322;16.204;2023-02-26T01:02:46;3.20;99.90
25640;DHT22;13497;48.322;16.204;2023-02-26T01:05:11;3.20;99.90
25640;DHT22;13497;48.322;16.204;2023-02-26T01:10:15;3.20;99.90
25640;DHT22;13497;48.322;16.204;2023-02-26T01:12:41;3.20;99.90
25640;DHT22;13497;48.322;16.204;2023-02-26T01:15:07;3.10;99.90
25640;DHT22;13497;48.322;16.204;2023-02-26T01:17:42;3.10;99.90
25640;DHT22;13497;48.322;16.204;2023-02-26T01:20:13;3.00;99.90
25640;DHT22;13497;48.322;16.204;2023-02-26T01:27:32;2.90;99.90
25640;DHT22;13497;48.322;16.204;2023-02-26T01:29:57;2.80;99.90
25640;DHT22;13497;48.322;16.204;2023-02-26T01:32:29;2.80;99.90
25640;DHT22;13497;48.322;16.204;2023-02-26T01:35:00;2.80;99.90
25640;DHT22;13497;48.322;16.204;2023-02-26T01:40:04;2.80;99.90
25640;DHT22;13497;48.322;16.204;2023-02-26T01:42:35;2.80;99.90
25640;DHT22;13497;48.322;16.204;2023-02-26T01:45:18;2.70;99.90
25640;DHT22;13497;48.322;16.204;2023-02-26T01:47:47;2.80;99.90
25640;DHT22;13497;48.322;16.204;2023-02-26T01:50:15;2.80;99.90
25640;DHT22;13497;48.322;16.204;2023-02-26T01:55:16;2.80;99.90
25640;DHT22;13497;48.322;16.204;2023-02-26T01:57:43;2.80;99.90
25640;DHT22;13497;48.322;16.204;2023-02-26T02:00:09;2.80;99.90
25640;DHT22;13497;48.322;16.204;2023-02-26T02:02:35;2.80;99.90
25640;DHT22;13497;48.322;16.204;2023-02-26T02:05:05;2.80;99.90
25640;DHT22;13497;48.322;16.204;2023-02-26T02:07:31;2.80;99.90
25640;DHT22;13497;48.322;16.204;2023-02-26T02:09:57;2.80;99.90
25640;DHT22;13497;48.322;16.204;2023-02-26T02:12:29;2.80;99.90
25640;DHT22;13497;48.322;16.204;2023-02-26T02:15:08;2.80;99.90
25640;DHT22;13497;48.322;16.204;2023-02-26T02:33:13;2.90;99.90
25640;DHT22;13497;48.322;16.204;2023-02-26T02:35:53;2.90;99.90
25640;DHT22;13497;48.322;16.204;2023-02-26T02:38:37;3.00;99.90
25640;DHT22;13497;48.322;16.204;2023-02-26T02:41:10;3.00;99.90
25640;DHT22;13497;48.322;16.204;2023-02-26T02:43:37;3.00;99.90
25640;DHT22;13497;48.322;16.204;2023-02-26T02:46:07;3.00;99.90
25640;DHT22;13497;48.322;16.204;2023-02-26T02:48:35;3.00;99.90
25640;DHT22;13497;48.322;16.204;2023-02-26T02:51:04;3.00;99.90
25640;DHT22;13497;48.322;16.204;2023-02-26T02:53:34;3.00;99.90
25640;DHT22;13497;48.322;16.204;2023-02-26T02:56:03;2.90;99.90
25640;DHT22;13497;48.322;16.204;2023-02-26T02:58:30;2.90;99.90
25640;DHT22;13497;48.322;16.204;2023-02-26T03:00:58;3.00;99.90
25640;DHT22;13497;48.322;16.204;2023-02-26T03:06:08;3.00;99.90
25640;DHT22;13497;48.322;16.204;2023-02-26T03:08:35;3.00;99.90
25640;DHT22;13497;48.322;16.204;2023-02-26T03:11:01;3.10;99.90
25640;DHT22;13497;48.322;16.204;2023-02-26T03:13:27;3.00;99.90
25640;DHT22;13497;48.322;16.204;2023-02-26T03:18:40;3.10;99.90
25640;DHT22;13497;48.322;16.204;2023-02-26T03:23:45;3.00;99.90
25640;DHT22;13497;48.322;16.204;2023-02-26T03:26:18;2.90;99.90
25640;DHT22;13497;48.322;16.204;2023-02-26T03:28:47;3.00;99.90
25640;DHT22;13497;48.322;16.204;2023-02-26T03:31:31;2.90;99.90
25640;DHT22;13497;48.322;16.204;2023-02-26T03:34:17;2.90;99.90
25640;DHT22;13497;48.322;16.204;2023-02-26T03:36:47;3.00;99.90
25640;DHT22;13497;48.322;16.204;2023-02-26T03:41:48;2.90;99.90
25640;DHT22;13497;48.322;16.204;2023-02-26T03:44:20;3.00;99.90
25640;DHT22;13497;48.322;16.204;2023-02-26T03:46:50;3.00;99.90
25640;DHT22;13497;48.322;16.204;2023-02-26T03:49:19;2.90;99.90
25640;DHT22;13497;48.322;16.204;2023-02-26T03:51:46;2.80;99.90
25640;DHT22;13497;48.322;16.204;2023-02-26T03:54:18;2.70;99.90
25640;DHT22;13497;48.322;16.204;2023-02-26T03:56:45;2.70;99.90
25640;DHT22;13497;48.322;16.204;2023-02-26T03:59:11;2.60;99.90
25640;DHT22;13497;48.322;16.204;2023-02-26T04:01:40;2.70;99.90
25640;DHT22;13497;48.322;16.204;2023-02-26T04:04:11;2.60;99.90
25640;DHT22;13497;48.322;16.204;2023-02-26T04:06:38;2.50;99.90
25640;DHT22;13497;48.322;16.204;2023-02-26T04:09:04;2.60;99.90
25640;DHT22;13497;48.322;16.204;2023-02-26T04:11:30;2.70;99.90
25640;DHT22;13497;48.322;16.204;2023-02-26T04:13:55;2.70;99.90
25640;DHT22;13497;48.322;16.204;2023-02-26T04:16:21;2.60;99.90
25640;DHT22;13497;48.322;16.204;2023-02-26T04:18:48;2.70;99.90
25640;DHT22;13497;48.322;16.204;2023-02-26T04:21:14;2.70;99.90
25640;DHT22;13497;48.322;16.204;2023-02-26T04:23:40;2.80;99.90
25640;DHT22;13497;48.322;16.204;2023-02-26T04:26:06;2.70;99.90
25640;DHT22;13497;48.322;16.204;2023-02-26T04:28:31;2.70;99.90
25640;DHT22;13497;48.322;16.204;2023-02-26T04:30:58;2.80;99.90
25640;DHT22;13497;48.322;16.204;2023-02-26T04:33:24;2.80;99.90
25640;DHT22;13497;48.322;16.204;2023-02-26T04:35:51;2.80;99.90
25640;DHT22;13497;48.322;16.204;2023-02-26T04:38:16;2.70;99.90
25640;DHT22;13497;48.322;16.204;2023-02-26T04:40:42;2.70;99.90
25640;DHT22;13497;48.322;16.204;2023-02-26T04:43:08;2.80;99.90
25640;DHT22;13497;48.322;16.204;2023-02-26T04:45:33;2.80;99.90
25640;DHT22;13497;48.322;16.204;2023-02-26T04:47:59;2.90;99.90
25640;DHT22;13497;48.322;16.204;2023-02-26T04:50:24;2.90;99.90
25640;DHT22;13497;48.322;16.204;2023-02-26T04:52:50;2.90;99.90
25640;DHT22;13497;48.322;16.204;2023-02-26T04:55:15;2.90;99.90
25640;DHT22;13497;48.322;16.204;2023-02-26T04:57:41;2.80;99.90
25640;DHT22;13497;48.322;16.204;2023-02-26T05:00:08;2.80;99.90
25640;DHT22;13497;48.322;16.204;2023-02-26T05:02:34;2.80;99.90
25640;DHT22;13497;48.322;16.204;2023-02-26T05:04:59;2.90;99.90
25640;DHT22;13497;48.322;16.204;2023-02-26T05:07:25;2.90;99.90
25640;DHT22;13497;48.322;16.204;2023-02-26T05:09:50;2.90;99.90
25640;DHT22;13497;48.322;16.204;2023-02-26T05:12:16;2.90;99.90
25640;DHT22;13497;48.322;16.204;2023-02-26T05:14:42;2.90;99.90
25640;DHT22;13497;48.322;16.204;2023-02-26T05:17:07;2.80;99.90
25640;DHT22;13497;48.322;16.204;2023-02-26T05:19:33;2.80;99.90
25640;DHT22;13497;48.322;16.204;2023-02-26T05:21:58;2.80;99.90
25640;DHT22;13497;48.322;16.204;2023-02-26T05:24:24;2.90;99.90
25640;DHT22;13497;48.322;16.204;2023-02-26T05:26:49;2.90;99.90
25640;DHT22;13497;48.322;16.204;2023-02-26T05:29:15;2.80;99.90
25640;DHT22;13497;48.322;16.204;2023-02-26T05:31:40;2.80;99.90
25640;DHT22;13497;48.322;16.204;2023-02-26T05:34:07;2.80;99.90
25640;DHT22;13497;48.322;16.204;2023-02-26T05:36:32;2.80;99.90
25640;DHT22;13497;48.322;16.204;2023-02-26T05:38:58;2.80;99.90
25640;DHT22;13497;48.322;16.204;2023-02-26T05:41:23;2.70;99.90
25640;DHT22;13497;48.322;16.204;2023-02-26T05:43:49;2.70;99.90
25640;DHT22;13497;48.322;16.204;2023-02-26T05:46:14;2.70;99.90
25640;DHT22;13497;48.322;16.204;2023-02-26T05:48:40;2.60;99.90
25640;DHT22;13497;48.322;16.204;2023-02-26T05:51:05;2.50;99.90
25640;DHT22;13497;48.322;16.204;2023-02-26T05:53:31;2.50;99.90
25640;DHT22;13497;48.322;16.204;2023-02-26T05:55:57;2.50;99.90
25640;DHT22;13497;48.322;16.204;2023-02-26T05:58:22;2.30;99.90
25640;DHT22;13497;48.322;16.204;2023-02-26T06:00:48;2.30;99.90
25640;DHT22;13497;48.322;16.204;2023-02-26T06:03:13;2.30;99.90
25640;DHT22;13497;48.322;16.204;2023-02-26T06:05:39;2.40;99.90
25640;DHT22;13497;48.322;16.204;2023-02-26T06:08:04;2.30;99.90
25640;DHT22;13497;48.322;16.204;2023-02-26T06:10:30;2.40;99.90
25640;DHT22;13497;48.322;16.204;2023-02-26T06:12:56;2.40;99.90
25640;DHT22;13497;48.322;16.204;2023-02-26T06:15:21;2.50;99.90
25640;DHT22;13497;48.322;16.204;2023-02-26T06:17:47;2.40;99.90
25640;DHT22;13497;48.322;16.204;2023-02-26T06:20:13;2.50;99.90
25640;DHT22;13497;48.322;16.204;2023-02-26T06:22:39;2.50;99.90
25640;DHT22;13497;48.322;16.204;2023-02-26T06:25:05;2.40;99.90
25640;DHT22;13497;48.322;16.204;2023-02-26T06:27:30;2.40;99.90
25640;DHT22;13497;48.322;16.204;2023-02-26T06:29:56;2.40;99.90
25640;DHT22;13497;48.322;16.204;2023-02-26T06:32:21;2.40;99.90
25640;DHT22;13497;48.322;16.204;2023-02-26T06:34:47;2.30;99.90
25640;DHT22;13497;48.322;16.204;2023-02-26T06:37:13;2.40;99.90
25640;DHT22;13497;48.322;16.204;2023-02-26T06:39:38;2.40;99.90
25640;DHT22;13497;48.322;16.204;2023-02-26T06:42:04;2.40;99.90
25640;DHT22;13497;48.322;16.204;2023-02-26T06:44:29;2.40;99.90
25640;DHT22;13497;48.322;16.204;2023-02-26T06:46:55;2.40;99.90
25640;DHT22;13497;48.322;16.204;2023-02-26T06:49:20;2.40;99.90
25640;DHT22;13497;48.322;16.204;2023-02-26T06:51:46;2.40;99.90
25640;DHT22;13497;48.322;16.204;2023-02-26T06:54:11;2.40;99.90
25640;DHT22;13497;48.322;16.204;2023-02-26T06:56:37;2.50;99.90
25640;DHT22;13497;48.322;16.204;2023-02-26T06:59:03;2.60;99.90
25640;DHT22;13497;48.322;16.204;2023-02-26T07:01:28;2.50;99.90
25640;DHT22;13497;48.322;16.204;2023-02-26T07:03:56;2.60;99.90
25640;DHT22;13497;48.322;16.204;2023-02-26T07:06:21;2.60;99.90
25640;DHT22;13497;48.322;16.204;2023-02-26T07:08:46;2.60;99.90
25640;DHT22;13497;48.322;16.204;2023-02-26T07:11:12;2.60;99.90
25640;DHT22;13497;48.322;16.204;2023-02-26T07:13:39;2.50;99.90
25640;DHT22;13497;48.322;16.204;2023-02-26T07:16:04;2.40;99.90
25640;DHT22;13497;48.322;16.204;2023-02-26T07:18:35;2.40;99.90
25640;DHT22;13497;48.322;16.204;2023-02-26T07:21:00;2.40;99.90
25640;DHT22;13497;48.322;16.204;2023-02-26T07:23:26;2.40;99.90
25640;DHT22;13497;48.322;16.204;2023-02-26T07:25:52;2.50;99.90
25640;DHT22;13497;48.322;16.204;2023-02-26T07:28:17;2.70;99.90
25640;DHT22;13497;48.322;16.204;2023-02-26T07:30:45;2.90;99.90
25640;DHT22;13497;48.322;16.204;2023-02-26T07:33:10;3.00;99.90
25640;DHT22;13497;48.322;16.204;2023-02-26T07:35:37;3.00;99.90
25640;DHT22;13497;48.322;16.204;2023-02-26T07:38:02;3.00;99.90
25640;DHT22;13497;48.322;16.204;2023-02-26T07:40:28;3.00;99.90
25640;DHT22;13497;48.322;16.204;2023-02-26T07:42:54;3.10;99.90
25640;DHT22;13497;48.322;16.204;2023-02-26T07:45:19;3.20;99.90
25640;DHT22;13497;48.322;16.204;2023-02-26T07:47:47;3.30;99.90
25640;DHT22;13497;48.322;16.204;2023-02-26T07:50:12;3.30;99.90
25640;DHT22;13497;48.322;16.204;2023-02-26T07:52:38;3.30;99.90
25640;DHT22;13497;48.322;16.204;2023-02-26T07:55:04;3.30;99.90
25640;DHT22;13497;48.322;16.204;2023-02-26T07:57:30;3.40;99.90
25640;DHT22;13497;48.322;16.204;2023-02-26T07:59:55;3.40;99.90
25640;DHT22;13497;48.322;16.204;2023-02-26T08:02:21;3.40;99.90
25640;DHT22;13497;48.322;16.204;2023-02-26T08:04:47;3.60;99.90
25640;DHT22;13497;48.322;16.204;2023-02-26T08:07:13;3.70;99.90
25640;DHT22;13497;48.322;16.204;2023-02-26T08:09:39;3.80;99.90
25640;DHT22;13497;48.322;16.204;2023-02-26T08:12:04;3.90;99.90
25640;DHT22;13497;48.322;16.204;2023-02-26T08:14:30;4.00;99.90
25640;DHT22;13497;48.322;16.204;2023-02-26T08:16:55;4.00;99.90
25640;DHT22;13497;48.322;16.204;2023-02-26T08:19:21;3.80;99.90
25640;DHT22;13497;48.322;16.204;2023-02-26T08:21:46;3.70;99.90
25640;DHT22;13497;48.322;16.204;2023-02-26T08:24:12;3.60;99.90
25640;DHT22;13497;48.322;16.204;2023-02-26T08:26:37;3.50;99.90
25640;DHT22;13497;48.322;16.204;2023-02-26T08:29:03;3.60;99.90
25640;DHT22;13497;48.322;16.204;2023-02-26T08:31:29;3.60;99.90
25640;DHT22;13497;48.322;16.204;2023-02-26T08:33:56;3.60;99.90
25640;DHT22;13497;48.322;16.204;2023-02-26T08:36:22;3.50;99.90
25640;DHT22;13497;48.322;16.204;2023-02-26T08:38:48;3.50;99.90
25640;DHT22;13497;48.322;16.204;2023-02-26T08:41:14;3.50;99.90
25640;DHT22;13497;48.322;16.204;2023-02-26T08:43:40;3.50;99.90
25640;DHT22;13497;48.322;16.204;2023-02-26T08:46:05;3.50;99.90
25640;DHT22;13497;48.322;16.204;2023-02-26T08:48:31;3.40;99.90
25640;DHT22;13497;48.322;16.204;2023-02-26T08:50:56;3.40;99.90
25640;DHT22;13497;48.322;16.204;2023-02-26T08:53:22;3.30;99.90
25640;DHT22;13497;48.322;16.204;2023-02-26T08:55:51;3.20;99.90
25640;DHT22;13497;48.322;16.204;2023-02-26T08:58:17;3.10;99.90
25640;DHT22;13497;48.322;16.204;2023-02-26T09:00:43;3.10;99.90
25640;DHT22;13497;48.322;16.204;2023-02-26T09:03:09;3.20;99.90
25640;DHT22;13497;48.322;16.204;2023-02-26T09:05:34;3.30;99.90
25640;DHT22;13497;48.322;16.204;2023-02-26T09:08:00;3.40;99.90
25640;DHT22;13497;48.322;16.204;2023-02-26T09:10:25;3.60;99.90
25640;DHT22;13497;48.322;16.204;2023-02-26T09:12:51;3.70;99.90
25640;DHT22;13497;48.322;16.204;2023-02-26T09:15:16;3.80;99.90
25640;DHT22;13497;48.322;16.204;2023-02-26T09:17:43;3.80;99.90
25640;DHT22;13497;48.322;16.204;2023-02-26T09:20:09;3.80;99.90
25640;DHT22;13497;48.322;16.204;2023-02-26T09:22:35;3.70;99.90
25640;DHT22;13497;48.322;16.204;2023-02-26T09:25:00;3.80;99.90
25640;DHT22;13497;48.322;16.204;2023-02-26T09:27:26;3.80;99.90
25640;DHT22;13497;48.322;16.204;2023-02-26T09:29:52;3.70;99.90
25640;DHT22;13497;48.322;16.204;2023-02-26T09:32:17;3.70;99.90
25640;DHT22;13497;48.322;16.204;2023-02-26T09:34:43;4.10;99.90
25640;DHT22;13497;48.322;16.204;2023-02-26T09:37:09;4.10;99.90
25640;DHT22;13497;48.322;16.204;2023-02-26T09:39:34;4.40;99.90
25640;DHT22;13497;48.322;16.204;2023-02-26T09:44:45;4.80;99.00
25640;DHT22;13497;48.322;16.204;2023-02-26T09:55:00;4.60;98.10
25640;DHT22;13497;48.322;16.204;2023-02-26T09:57:32;4.40;98.40
25640;DHT22;13497;48.322;16.204;2023-02-26T09:59:58;4.40;99.60
25640;DHT22;13497;48.322;16.204;2023-02-26T10:02:29;4.50;99.20
25640;DHT22;13497;48.322;16.204;2023-02-26T10:05:06;4.80;97.40
25640;DHT22;13497;48.322;16.204;2023-02-26T10:12:33;5.50;98.80
25640;DHT22;13497;48.322;16.204;2023-02-26T10:17:48;5.80;96.20
25640;DHT22;13497;48.322;16.204;2023-02-26T10:20:18;5.90;96.60
25640;DHT22;13497;48.322;16.204;2023-02-26T10:23:06;6.00;97.00
25640;DHT22;13497;48.322;16.204;2023-02-26T10:25:36;5.40;96.50
25640;DHT22;13497;48.322;16.204;2023-02-26T10:30:59;5.10;96.50
25640;DHT22;13497;48.322;16.204;2023-02-26T10:33:44;5.10;97.00
25640;DHT22;13497;48.322;16.204;2023-02-26T10:36:15;5.10;96.40
25640;DHT22;13497;48.322;16.204;2023-02-26T10:38:42;5.30;95.20
25640;DHT22;13497;48.322;16.204;2023-02-26T10:41:09;5.30;95.30
25640;DHT22;13497;48.322;16.204;2023-02-26T10:43:38;5.40;94.70
25640;DHT22;13497;48.322;16.204;2023-02-26T10:51:17;5.20;95.20
25640;DHT22;13497;48.322;16.204;2023-02-26T10:53:44;5.20;95.50
25640;DHT22;13497;48.322;16.204;2023-02-26T10:56:15;5.10;94.90
25640;DHT22;13497;48.322;16.204;2023-02-26T10:58:42;5.10;95.30
25640;DHT22;13497;48.322;16.204;2023-02-26T11:01:15;5.10;96.10
25640;DHT22;13497;48.322;16.204;2023-02-26T11:04:03;4.90;96.70
25640;DHT22;13497;48.322;16.204;2023-02-26T11:06:30;4.90;96.60
25640;DHT22;13497;48.322;16.204;2023-02-26T11:08:56;4.80;96.60
25640;DHT22;13497;48.322;16.204;2023-02-26T11:11:43;4.80;96.50
25640;DHT22;13497;48.322;16.204;2023-02-26T11:14:10;4.80;96.30
25640;DHT22;13497;48.322;16.204;2023-02-26T11:16:40;5.10;96.70
25640;DHT22;13497;48.322;16.204;2023-02-26T11:19:06;5.80;96.00
25640;DHT22;13497;48.322;16.204;2023-02-26T11:21:37;6.30;94.50
25640;DHT22;13497;48.322;16.204;2023-02-26T11:24:05;6.70;93.90
25640;DHT22;13497;48.322;16.204;2023-02-26T11:26:33;6.60;94.00
25640;DHT22;13497;48.322;16.204;2023-02-26T11:28:59;6.10;95.20
25640;DHT22;13497;48.322;16.204;2023-02-26T11:31:25;5.50;96.90
25640;DHT22;13497;48.322;16.204;2023-02-26T11:34:03;5.20;97.10
25640;DHT22;13497;48.322;16.204;2023-02-26T11:36:30;5.10;97.10
25640;DHT22;13497;48.322;16.204;2023-02-26T11:38:56;4.90;97.00
25640;DHT22;13497;48.322;16.204;2023-02-26T11:41:23;4.70;97.70
25640;DHT22;13497;48.322;16.204;2023-02-26T11:43:55;4.60;97.90
25640;DHT22;13497;48.322;16.204;2023-02-26T11:46:23;4.70;98.80
25640;DHT22;13497;48.322;16.204;2023-02-26T11:48:49;4.70;99.30
25640;DHT22;13497;48.322;16.204;2023-02-26T11:51:21;4.50;99.10
25640;DHT22;13497;48.322;16.204;2023-02-26T11:53:49;4.20;99.90
25640;DHT22;13497;48.322;16.204;2023-02-26T11:56:19;4.00;99.90
25640;DHT22;13497;48.322;16.204;2023-02-26T11:58:49;4.20;99.90
25640;DHT22;13497;48.322;16.204;2023-02-26T12:01:16;4.50;99.90
25640;DHT22;13497;48.322;16.204;2023-02-26T12:03:46;4.70;99.90
25640;DHT22;13497;48.322;16.204;2023-02-26T12:06:15;4.90;99.90
25640;DHT22;13497;48.322;16.204;2023-02-26T12:08:41;5.20;99.80
25640;DHT22;13497;48.322;16.204;2023-02-26T12:16:25;5.50;98.50
25640;DHT22;13497;48.322;16.204;2023-02-26T12:19:00;5.00;97.10
25640;DHT22;13497;48.322;16.204;2023-02-26T12:26:58;4.60;97.90
25640;DHT22;13497;48.322;16.204;2023-02-26T12:32:04;4.90;97.00
25640;DHT22;13497;48.322;16.204;2023-02-26T12:47:18;4.30;99.40
25640;DHT22;13497;48.322;16.204;2023-02-26T12:49:58;4.50;99.10
25640;DHT22;13497;48.322;16.204;2023-02-26T13:00:21;4.90;99.00
25640;DHT22;13497;48.322;16.204;2023-02-26T13:02:58;4.90;99.00
25640;DHT22;13497;48.322;16.204;2023-02-26T13:08:05;5.20;97.80
25640;DHT22;13497;48.322;16.204;2023-02-26T13:13:03;4.80;97.90
25640;DHT22;13497;48.322;16.204;2023-02-26T13:20:31;4.00;99.90
25640;DHT22;13497;48.322;16.204;2023-02-26T13:23:21;4.00;99.90
25640;DHT22;13497;48.322;16.204;2023-02-26T13:25:46;4.30;99.90
25640;DHT22;13497;48.322;16.204;2023-02-26T13:30:56;4.60;98.30
25640;DHT22;13497;48.322;16.204;2023-02-26T13:33:23;4.60;97.30
25640;DHT22;13497;48.322;16.204;2023-02-26T13:35:51;4.70;97.90
25640;DHT22;13497;48.322;16.204;2023-02-26T13:51:42;4.70;99.20
25640;DHT22;13497;48.322;16.204;2023-02-26T13:59:02;5.20;97.80
25640;DHT22;13497;48.322;16.204;2023-02-26T14:01:31;5.30;97.60
25640;DHT22;13497;48.322;16.204;2023-02-26T14:04:21;5.30;97.30
25640;DHT22;13497;48.322;16.204;2023-02-26T14:06:53;5.30;97.00
25640;DHT22;13497;48.322;16.204;2023-02-26T14:19:27;5.10;94.70
25640;DHT22;13497;48.322;16.204;2023-02-26T14:21:56;5.00;94.20
25640;DHT22;13497;48.322;16.204;2023-02-26T14:27:19;4.90;94.10
25640;DHT22;13497;48.322;16.204;2023-02-26T14:32:33;4.90;94.10
25640;DHT22;13497;48.322;16.204;2023-02-26T14:35:03;4.90;93.30
25640;DHT22;13497;48.322;16.204;2023-02-26T14:37:30;4.80;93.00
25640;DHT22;13497;48.322;16.204;2023-02-26T14:39:58;4.70;92.90
25640;DHT22;13497;48.322;16.204;2023-02-26T14:44:59;4.90;93.60
25640;DHT22;13497;48.322;16.204;2023-02-26T14:47:27;4.90;93.10
25640;DHT22;13497;48.322;16.204;2023-02-26T14:49:53;4.80;93.10
25640;DHT22;13497;48.322;16.204;2023-02-26T14:57:29;4.40;93.50
25640;DHT22;13497;48.322;16.204;2023-02-26T15:02:43;4.10;95.70
25640;DHT22;13497;48.322;16.204;2023-02-26T15:12:40;3.20;99.90
25640;DHT22;13497;48.322;16.204;2023-02-26T15:20:24;3.00;99.90
25640;DHT22;13497;48.322;16.204;2023-02-26T15:25:42;3.10;99.90
25640;DHT22;13497;48.322;16.204;2023-02-26T15:28:14;3.10;99.90
25640;DHT22;13497;48.322;16.204;2023-02-26T15:30:44;3.20;99.90
25640;DHT22;13497;48.322;16.204;2023-02-26T15:33:11;3.30;99.90
25640;DHT22;13497;48.322;16.204;2023-02-26T15:35:37;3.40;99.90
25640;DHT22;13497;48.322;16.204;2023-02-26T15:38:03;3.50;99.90
25640;DHT22;13497;48.322;16.204;2023-02-26T15:40:35;3.60;99.90
25640;DHT22;13497;48.322;16.204;2023-02-26T15:43:02;3.60;99.90
25640;DHT22;13497;48.322;16.204;2023-02-26T15:45:33;3.60;99.90
25640;DHT22;13497;48.322;16.204;2023-02-26T15:48:19;3.60;99.90
25640;DHT22;13497;48.322;16.204;2023-02-26T15:50:47;3.70;99.90
25640;DHT22;13497;48.322;16.204;2023-02-26T15:53:56;3.70;99.90
25640;DHT22;13497;48.322;16.204;2023-02-26T15:56:04;3.70;99.60
25640;DHT22;13497;48.322;16.204;2023-02-26T15:58:35;3.60;99.40
25640;DHT22;13497;48.322;16.204;2023-02-26T16:01:02;3.60;99.70
25640;DHT22;13497;48.322;16.204;2023-02-26T16:03:30;3.60;99.00
25640;DHT22;13497;48.322;16.204;2023-02-26T16:05:56;3.50;98.90
25640;DHT22;13497;48.322;16.204;2023-02-26T16:08:22;3.40;99.00
25640;DHT22;13497;48.322;16.204;2023-02-26T16:10:48;3.50;99.00
25640;DHT22;13497;48.322;16.204;2023-02-26T16:13:15;3.50;99.50
25640;DHT22;13497;48.322;16.204;2023-02-26T16:15:41;3.50;99.20
25640;DHT22;13497;48.322;16.204;2023-02-26T16:18:15;3.60;99.30
25640;DHT22;13497;48.322;16.204;2023-02-26T16:20:43;3.50;99.50
25640;DHT22;13497;48.322;16.204;2023-02-26T16:23:13;3.60;99.70
25640;DHT22;13497;48.322;16.204;2023-02-26T16:25:50;3.50;99.70
25640;DHT22;13497;48.322;16.204;2023-02-26T16:28:20;3.50;99.90
25640;DHT22;13497;48.322;16.204;2023-02-26T16:30:47;3.50;99.90
25640;DHT22;13497;48.322;16.204;2023-02-26T16:33:14;3.50;99.90
25640;DHT22;13497;48.322;16.204;2023-02-26T16:35:44;3.40;99.90
25640;DHT22;13497;48.322;16.204;2023-02-26T16:38:11;3.50;99.90
25640;DHT22;13497;48.322;16.204;2023-02-26T16:40:42;3.50;99.90
25640;DHT22;13497;48.322;16.204;2023-02-26T16:45:53;3.40;99.90
25640;DHT22;13497;48.322;16.204;2023-02-26T16:50:47;3.30;99.90
25640;DHT22;13497;48.322;16.204;2023-02-26T16:53:16;3.40;99.90
25640;DHT22;13497;48.322;16.204;2023-02-26T16:55:45;3.30;99.90
25640;DHT22;13497;48.322;16.204;2023-02-26T16:58:13;3.20;99.90
25640;DHT22;13497;48.322;16.204;2023-02-26T17:00:39;3.20;99.90
25640;DHT22;13497;48.322;16.204;2023-02-26T17:03:11;3.20;99.90
25640;DHT22;13497;48.322;16.204;2023-02-26T17:05:38;3.30;99.90
25640;DHT22;13497;48.322;16.204;2023-02-26T17:08:12;3.30;99.90
25640;DHT22;13497;48.322;16.204;2023-02-26T17:10:49;3.30;99.90
25640;DHT22;13497;48.322;16.204;2023-02-26T17:13:25;3.20;99.90
25640;DHT22;13497;48.322;16.204;2023-02-26T17:15:51;3.20;99.90
25640;DHT22;13497;48.322;16.204;2023-02-26T17:18:19;3.10;99.90
25640;DHT22;13497;48.322;16.204;2023-02-26T17:20:44;3.10;99.40
25640;DHT22;13497;48.322;16.204;2023-02-26T17:23:12;3.00;99.60
25640;DHT22;13497;48.322;16.204;2023-02-26T17:25:38;3.00;99.00
25640;DHT22;13497;48.322;16.204;2023-02-26T17:28:05;2.90;99.00
25640;DHT22;13497;48.322;16.204;2023-02-26T17:30:31;2.90;98.80
25640;DHT22;13497;48.322;16.204;2023-02-26T17:32:58;2.80;98.70
25640;DHT22;13497;48.322;16.204;2023-02-26T17:35:24;2.90;98.40
25640;DHT22;13497;48.322;16.204;2023-02-26T17:37:50;2.90;98.50
25640;DHT22;13497;48.322;16.204;2023-02-26T17:40:18;2.90;98.90
25640;DHT22;13497;48.322;16.204;2023-02-26T17:42:44;2.90;98.10
25640;DHT22;13497;48.322;16.204;2023-02-26T17:45:10;2.90;98.00
25640;DHT22;13497;48.322;16.204;2023-02-26T17:47:36;2.90;97.80
25640;DHT22;13497;48.322;16.204;2023-02-26T17:50:01;2.90;97.70
25640;DHT22;13497;48.322;16.204;2023-02-26T17:52:30;2.90;97.90
25640;DHT22;13497;48.322;16.204;2023-02-26T17:54:56;2.90;97.70
25640;DHT22;13497;48.322;16.204;2023-02-26T17:57:21;2.90;97.80
25640;DHT22;13497;48.322;16.204;2023-02-26T17:59:48;2.90;97.50
25640;DHT22;13497;48.322;16.204;2023-02-26T18:02:15;2.90;97.70
25640;DHT22;13497;48.322;16.204;2023-02-26T18:04:41;3.00;98.00
25640;DHT22;13497;48.322;16.204;2023-02-26T18:07:07;3.00;97.90
25640;DHT22;13497;48.322;16.204;2023-02-26T18:09:33;3.00;98.00
25640;DHT22;13497;48.322;16.204;2023-02-26T18:11:58;3.00;98.30
25640;DHT22;13497;48.322;16.204;2023-02-26T18:14:24;3.00;98.20
25640;DHT22;13497;48.322;16.204;2023-02-26T18:16:49;3.00;98.00
25640;DHT22;13497;48.322;16.204;2023-02-26T18:19:15;2.90;98.10
25640;DHT22;13497;48.322;16.204;2023-02-26T18:21:41;2.80;98.20
25640;DHT22;13497;48.322;16.204;2023-02-26T18:24:06;2.70;98.40
25640;DHT22;13497;48.322;16.204;2023-02-26T18:26:32;2.60;98.20
25640;DHT22;13497;48.322;16.204;2023-02-26T18:28:57;2.60;98.40
25640;DHT22;13497;48.322;16.204;2023-02-26T18:31:23;2.50;98.50
25640;DHT22;13497;48.322;16.204;2023-02-26T18:33:57;2.50;98.50
25640;DHT22;13497;48.322;16.204;2023-02-26T18:36:24;2.40;98.70
25640;DHT22;13497;48.322;16.204;2023-02-26T18:39:05;2.50;98.90